Spirit Of Tasmania II — VNSZ — position and weather

sailwx.info

Track history (hours):
 
Tides and Currents Weather Stations Pressure Air Temp Water Temp Dewpoint Dewpoint Depression Visibility Wind Speed Wind Dir Waves Ship Positions

Spirit Of Tasmania II

Last reported at 2019-Jul-19 18:30 UTC. Time now 2019-Jul-19 18:34 UTC.
Position S 40°51' E 146°11'.

Length 194.3 m; beam 25 m; draft 6.2 m.

Type: Ship. MMSI: 503433000.

Date/timePositionNaut miles runAvg speedWind from/ knotsBaromVisibWave heightAir tempDewpointWater temp
2019-Jul-19 18:30S 40°51' E 146°11'1224.0
2019-Jul-19 18:00S 40°41' E 146°04'5329.1
2019-Jul-19 18:00S 40°36' E 146°00'714.0 1017.2 12.1 13.0
2019-Jul-19 17:30S 40°30' E 145°56'1937.1
2019-Jul-19 17:00S 40°12' E 145°48'4824.0 1018.0 12.0 13.2
2019-Jul-19 15:00S 39°30' E 145°18'3131.4 1019.3 11.9 13.6
2019-Jul-19 14:00S 39°00' E 145°06'4623.0 1020.1 11.6 13.9
2019-Jul-19 12:00S 38°18' E 144°42'1111.2 1020.5 10.2 12.2
2019-Jul-19 11:00S 38°12' E 144°54'2412.0 1021.3 10.9 11.4
2019-Jul-19 09:00S 37°48' E 144°54'0 0.0 1021.2 11.9
2019-Jul-19 08:00S 37°48' E 144°54'0 0.0 1020.6 12.9
2019-Jul-19 05:00S 37°48' E 144°54'0 0.0 1020.2 11.6 10.9
2019-Jul-19 03:00S 37°48' E 144°54'0 0.0 1021.0 13.2 10.7
2019-Jul-19 02:00S 37°48' E 144°54'0 0.0 1021.6 12.4 10.7
2019-Jul-19 00:00S 37°48' E 144°54'0 0.0 1021.7 10.5 10.8
2019-Jul-18 23:00S 37°48' E 144°54'0 0.0 1020.7 9.0 10.8
2019-Jul-18 21:00S 37°48' E 144°54'0 0.0 1019.1 9.7 11.2
2019-Jul-18 20:00S 37°48' E 144°54'4314.3 1018.8 10.0
2019-Jul-18 17:00S 38°30' E 144°42'4824.0 1014.9 12.6 13.9
2019-Jul-18 15:00S 39°12' E 145°12'2625.7 1011.9 12.4 13.4
2019-Jul-18 14:00S 39°36' E 145°24'5326.6 1010.2 11.5 13.3
2019-Jul-18 12:00S 40°24' E 145°54'1216.7 1005.4 12.3 13.0
2019-Jul-18 11:15S 40°35' E 146°01'626.0
2019-Jul-18 11:00S 40°41' E 146°05'7483.5
2019-Jul-18 11:00S 40°48' E 146°06'713.9 1005.8 11.6 12.7
2019-Jul-18 10:30S 40°53' E 146°13'1825.4
2019-Jul-18 09:48S 41°09' E 146°23'3 4.1
2019-Jul-18 09:00S 41°12' E 146°24'0 0.0 1008.1 11.4 9.6
2019-Jul-18 08:00S 41°12' E 146°24'0 0.0 1008.7 11.4 10.0
2019-Jul-18 06:00S 41°12' E 146°24'0 0.0 1010.1 11.2 11.0
2019-Jul-18 05:00S 41°12' E 146°24'0 0.0 1010.3 10.9 11.9
2019-Jul-18 03:00S 41°12' E 146°24'0 0.0 1011.1 10.5 12.7
2019-Jul-18 02:00S 41°12' E 146°24'0 0.0 1011.9 10.1 12.6
2019-Jul-18 00:00S 41°12' E 146°24'0 0.0 1012.2 8.7 12.1
2019-Jul-17 21:00S 41°12' E 146°24'0 0.0 1010.5 7.9 9.6
2019-Jul-17 20:00S 41°12' E 146°24'4622.9 1009.8 8.3 11.6
2019-Jul-17 18:00S 40°30' E 146°00'432.0 1009.7 10.0
2019-Jul-17 17:52S 40°34' E 146°01'3135.9
2019-Jul-17 17:00S 40°06' E 145°42'5326.6 1010.1 11.1 13.2
2019-Jul-17 15:00S 39°18' E 145°12'2020.3 1010.8 11.8 13.5
2019-Jul-17 14:00S 39°00' E 145°00'4321.5 1011.2 12.8 14.1
2019-Jul-17 12:00S 38°18' E 144°48'1312.9 1014.6 11.2 12.1
2019-Jul-17 11:00S 38°06' E 144°54'18 9.0 1014.9 11.0 11.4
2019-Jul-17 09:00S 37°48' E 144°54'0 0.0 1014.2 11.9 10.9
2019-Jul-17 08:00S 37°48' E 144°54'0 0.0 1013.3 12.2 11.0
2019-Jul-17 06:00S 37°48' E 144°54'0 0.0 1012.9 13.2 11.2
2019-Jul-17 05:00S 37°48' E 144°54'0 0.0 1012.5 11.8 11.2
2019-Jul-17 03:00S 37°48' E 144°54'0 0.0 1014.2 12.2 11.1
2019-Jul-17 02:00S 37°48' E 144°54'0 0.0 1015.5 11.1 11.1
2019-Jul-16 23:00S 37°48' E 144°54'3015.2 1017.4 11.1 12.7
2019-Jul-16 21:00S 38°18' E 144°48'1515.2 1017.1 9.7 12.0
2019-Jul-16 20:00S 38°30' E 144°36'5326.7 1015.7 10.4 14.0
2019-Jul-16 18:00S 39°18' E 145°06'2827.7 1015.1 11.0 13.6
2019-Jul-16 17:00S 39°42' E 145°24'5326.6 1014.5 11.4 13.5
2019-Jul-16 15:00S 40°30' E 145°54'791.6 1013.7 10.2 13.0
2019-Jul-16 14:55S 40°23' E 145°52'1127.6
2019-Jul-16 14:31S 40°33' E 145°59'1427.5
2019-Jul-16 14:01S 40°45' E 146°07'10576.8
2019-Jul-16 14:00S 40°54' E 146°12'4 8.8 1012.3 11.1 13.0
2019-Jul-16 13:31S 40°57' E 146°16'1325.5
2019-Jul-16 13:00S 41°09' E 146°23'3 3.1
2019-Jul-16 12:00S 41°12' E 146°24'0 0.0 1013.6 10.6 12.7
2019-Jul-16 11:00S 41°12' E 146°24'8 3.8 1013.9 11.0 12.7
2019-Jul-16 09:00S 41°06' E 146°18'493.6 1013.9 12.1 12.7
2019-Jul-16 08:57S 41°09' E 146°23'2226.6
2019-Jul-16 08:08S 40°50' E 146°09'856.2
2019-Jul-16 08:00S 40°42' E 146°06'1 9.2 1015.0 11.6
2019-Jul-16 07:53S 40°43' E 146°06'6031.5
2019-Jul-16 06:00S 39°48' E 145°36'2827.7 1015.8 12.2 13.6
2019-Jul-16 05:00S 39°24' E 145°18'5326.7 1017.6 12.0 13.8
2019-Jul-16 03:00S 38°36' E 144°48'2020.3 1020.7 12.1 13.6
2019-Jul-16 02:00S 38°18' E 144°36'2813.9 1022.4 12.3 12.3
2019-Jul-16 00:00S 37°54' E 144°54'6 6.0 1023.6 10.8 11.7
2019-Jul-15 23:00S 37°48' E 144°54'0 0.0 1023.3 10.9 11.0
2019-Jul-15 21:00S 37°48' E 144°54'3010.0 1022.2 10.3 11.2
2019-Jul-15 18:00S 38°18' E 144°54'4916.3 1021.3 10.8 11.5
2019-Jul-15 15:00S 39°06' E 145°06'2827.7 1018.4 12.3 14.0
2019-Jul-15 14:00S 39°30' E 145°24'5326.6 1017.5 11.7 13.8
2019-Jul-15 12:00S 40°18' E 145°54'1217.1 1013.7 11.2 13.1
2019-Jul-15 11:16S 40°30' E 145°58'726.9
2019-Jul-15 11:00S 40°36' E 146°02'6409.3
2019-Jul-15 11:00S 40°42' E 146°06'714.7 1012.0 11.2 13.0
2019-Jul-15 10:30S 40°48' E 146°10'1427.3
2019-Jul-15 10:00S 41°01' E 146°18'1211.8
2019-Jul-15 09:00S 41°12' E 146°24'0 0.0 1010.9 11.8 12.1
2019-Jul-15 08:00S 41°12' E 146°24'0 0.0 1010.4 12.0 9.6
2019-Jul-15 06:00S 41°12' E 146°24'0 0.0 1010.4 12.5 9.2
2019-Jul-15 05:00S 41°12' E 146°24'0 0.0 1011.2 10.9 9.5
2019-Jul-15 03:00S 41°12' E 146°24'0 0.0 1013.2 10.5 10.7
2019-Jul-15 00:00S 41°12' E 146°24'410.3 1014.4 9.5 12.6
2019-Jul-14 23:38S 41°08' E 146°23'515.2
2019-Jul-14 23:20S 41°04' E 146°22'1236.9
2019-Jul-14 23:00S 40°54' E 146°12'6149.2 1014.8 9.5 12.8
2019-Jul-14 22:57S 40°58' E 146°17'1327.9
2019-Jul-14 22:28S 40°46' E 146°08'5034.0
2019-Jul-14 21:00S 40°00' E 145°42'2322.7 1011.8 10.6 13.4
2019-Jul-14 20:00S 39°42' E 145°24'5326.7 1012.4 10.9 13.8
2019-Jul-14 18:00S 38°54' E 144°54'2625.8 1011.8 11.8 14.0
2019-Jul-14 17:00S 38°30' E 144°42'3115.7 1016.2 11.9 13.3
2019-Jul-14 15:00S 38°00' E 144°54'1212.0 1015.6 10.3 11.6
2019-Jul-14 14:00S 37°48' E 144°54'0 0.0 1015.7 10.0 12.6
2019-Jul-14 12:00S 37°48' E 144°54'6 6.0 1015.7 11.0 12.7
2019-Jul-14 11:00S 37°54' E 144°54'2813.9 1015.1 10.7 12.3
2019-Jul-14 09:00S 38°18' E 144°36'2625.8 1014.2 10.3
2019-Jul-14 08:00S 38°42' E 144°48'4824.0 1007.3 11.9 14.1
2019-Jul-14 06:00S 39°24' E 145°18'2625.7 1006.8 11.8 13.8
2019-Jul-14 05:00S 39°48' E 145°30'5326.6 1005.0 9.5 13.5
2019-Jul-14 03:00S 40°36' E 146°00'2827.6 1002.5 9.2 12.9
2019-Jul-14 02:00S 41°00' E 146°18'13 6.4 1003.2 10.4 13.2
2019-Jul-14 00:00S 41°12' E 146°24'0 0.0 1004.4 10.1 13.0
2019-Jul-13 23:00S 41°12' E 146°24'2 2.7 1004.2 9.9 13.1
2019-Jul-13 22:14S 41°11' E 146°22'211.2
2019-Jul-13 22:00S 41°08' E 146°23'1325.5
2019-Jul-13 21:30S 40°57' E 146°15'1427.7
2019-Jul-13 21:00S 40°45' E 146°06'10615.1
2019-Jul-13 21:00S 40°36' E 146°00'2625.7 1007.3 11.1 12.8
2019-Jul-13 20:00S 40°12' E 145°48'5326.6 1009.1 10.7 13.3
2019-Jul-13 18:00S 39°24' E 145°18'2827.8 1013.7 10.8 13.7
2019-Jul-13 17:00S 39°00' E 145°00'4321.5 1016.2 11.3 13.9
2019-Jul-13 15:00S 38°18' E 144°48'1312.9 1020.6 7.7 11.5
2019-Jul-13 14:00S 38°06' E 144°54'18 9.0 1020.5 8.2 11.5
2019-Jul-13 12:00S 37°48' E 144°54'0 0.0 1022.9 7.3 11.3
2019-Jul-13 11:00S 37°48' E 144°54'6 3.0 1022.7 7.5 11.3
2019-Jul-13 09:00S 37°54' E 144°54'1818.0 1020.8 8.6 12.1
2019-Jul-13 08:00S 38°12' E 144°54'3015.2 1018.0 10.2 11.7
2019-Jul-13 06:00S 38°42' E 144°48'8127.0 1014.5 10.6 14.1
2019-Jul-13 03:00S 39°54' E 145°36'2625.7 1008.2 9.4 13.5
2019-Jul-13 02:00S 40°18' E 145°48'914.9 1006.3 9.5 13.2
2019-Jul-13 01:24S 40°25' E 145°55'1127.3
2019-Jul-13 01:00S 40°35' E 146°01'1427.5
2019-Jul-13 00:31S 40°47' E 146°09'2242.7
2019-Jul-13 00:00S 41°06' E 146°24'7391.0 1002.3 7.6 13.5
2019-Jul-12 23:58S 41°00' E 146°18'1313.0
2019-Jul-12 23:00S 41°12' E 146°24'0 0.0 1001.7 7.4 12.8
2019-Jul-12 21:00S 41°12' E 146°24'0 0.0 998.7 6.4 13.0
2019-Jul-12 20:00S 41°12' E 146°24'1812.3 998.1 5.6 14.0
2019-Jul-12 18:31S 40°55' E 146°14'127.0
2019-Jul-12 18:29S 40°54' E 146°14'1327.0
2019-Jul-12 18:00S 40°43' E 146°06'8653.6
2019-Jul-12 18:00S 40°36' E 146°00'2625.7 995.9 9.4 12.8
2019-Jul-12 17:00S 40°12' E 145°48'5326.6 997.5 7.1 13.3
2019-Jul-12 15:00S 39°24' E 145°18'2625.7 998.3 9.0 13.7
2019-Jul-12 14:00S 39°00' E 145°06'4623.0 1001.6 9.2 14.1
2019-Jul-12 12:00S 38°18' E 144°42'1111.2 1004.2 8.0 12.9
2019-Jul-12 11:00S 38°12' E 144°54'2412.0 1003.4 10.0 11.9
2019-Jul-12 09:00S 37°48' E 144°54'0 0.0 1005.9 9.9 11.6
2019-Jul-12 08:00S 37°48' E 144°54'0 0.0 1005.1 9.6 11.7
2019-Jul-12 06:00S 37°48' E 144°54'0 0.0 1003.7 13.9 13.4
2019-Jul-12 05:00S 37°48' E 144°54'0 0.0 1003.7 14.1 11.5
2019-Jul-12 03:00S 37°48' E 144°54'0 0.0 1004.1 14.2 11.5
2019-Jul-12 02:00S 37°48' E 144°54'0 0.0 1005.0 12.8 11.5
2019-Jul-11 23:00S 37°48' E 144°54'0 0.0 1004.3 11.7 11.5
2019-Jul-11 21:00S 37°48' E 144°54'6 6.0 1004.5 12.4 12.0
2019-Jul-11 20:00S 37°54' E 144°54'2412.2 1004.1 11.8 13.0
2019-Jul-11 18:00S 38°18' E 144°48'1312.9 1003.4 11.6 12.7
2019-Jul-11 17:00S 38°30' E 144°42'5326.7 1002.0 12.7 13.8
2019-Jul-11 15:00S 39°18' E 145°12'2020.2 999.3 13.3 13.7
2019-Jul-11 14:00S 39°36' E 145°24'5326.6 998.5 13.1 13.6
2019-Jul-11 12:00S 40°24' E 145°54'3 6.5 998.3 12.0 13.2
2019-Jul-11 11:31S 40°26' E 145°56'026.4
2019-Jul-11 11:30S 40°27' E 145°57'1326.0
2019-Jul-11 11:00S 40°39' E 146°04'92238.9
2019-Jul-11 11:00S 40°48' E 146°06'5 9.8 997.1 11.2 13.4
2019-Jul-11 10:30S 40°50' E 146°11'1325.3
2019-Jul-11 10:00S 41°02' E 146°19'1015.9
2019-Jul-11 09:24S 41°11' E 146°22'2 4.6
2019-Jul-11 09:00S 41°12' E 146°24'0 0.0 996.8 9.5 12.7
2019-Jul-11 08:00S 41°12' E 146°24'0 0.0 995.7 9.6 12.7
2019-Jul-11 06:00S 41°12' E 146°24'0 0.0 995.3 10.6 12.2
2019-Jul-11 05:00S 41°12' E 146°24'0 0.0 994.7 11.0 10.6
2019-Jul-11 03:00S 41°12' E 146°24'0 0.0 994.9 10.8 10.4
2019-Jul-11 02:00S 41°12' E 146°24'0 0.0 994.6 11.9 10.5
2019-Jul-11 00:00S 41°12' E 146°24'0 0.0 993.3 9.8 11.4
2019-Jul-10 23:00S 41°12' E 146°24'0 0.0 992.9 9.3 11.9
2019-Jul-10 21:00S 41°12' E 146°24'0 0.0 992.1 9.0 12.7
2019-Jul-10 20:00S 41°12' E 146°24'2 5.1 991.5 8.7 13.2
2019-Jul-10 19:31S 41°10' E 146°22'0 9.6
2019-Jul-10 19:31S 41°10' E 146°22'918.5
2019-Jul-10 19:00S 41°01' E 146°18'1523.4
2019-Jul-10 18:23S 40°48' E 146°09'1436.1
2019-Jul-10 18:00S 40°36' E 146°00'7926.3 991.5 10.5
2019-Jul-10 15:00S 39°24' E 145°18'7223.9 993.1 10.4 14.1
2019-Jul-10 12:00S 38°18' E 144°42'1111.2 998.3 10.4 13.4
2019-Jul-10 11:00S 38°12' E 144°54'2412.0 998.8 12.9 12.1
2019-Jul-10 09:00S 37°48' E 144°54'0 0.0 1002.0 13.8 11.7
2019-Jul-10 08:00S 37°48' E 144°54'0 0.0 1002.2 14.1 11.7
2019-Jul-10 06:00S 37°48' E 144°54'0 0.0 1003.7 14.8 11.7
2019-Jul-10 03:00S 37°48' E 144°54'0 0.0 1007.1 13.6 11.7
2019-Jul-10 02:00S 37°48' E 144°54'0 0.0 010 / 201009.0 13.1 11.7
2019-Jul-10 00:00S 37°48' E 144°54'0 0.0 190 / 161012.1 11.5 11.8
2019-Jul-09 23:00S 37°48' E 144°54'12 6.0 200 / 161012.1 10.5
2019-Jul-09 21:00S 38°00' E 144°54'1818.0 180 / 631012.8 10.8
2019-Jul-09 20:00S 38°18' E 144°54'   220 / 561011.3 11.6 12.4
Track history (hours):
 
Tides and Currents Weather Stations Pressure Air Temp Water Temp Dewpoint Dewpoint Depression Visibility Wind Speed Wind Dir Waves Ship Positions

Spirit Of Tasmania II

Last reported at 2019-Jul-19 18:30 UTC. Time now 2019-Jul-19 18:34 UTC.
Position S 40°51' E 146°11'.

Length 194.3 m; beam 25 m; draft 6.2 m.

Type: Ship. MMSI: 503433000.

Date/timePositionNaut miles runAvg speedWind from/ knotsBaromVisibWave heightAir tempDewpointWater temp
2019-Jul-19 18:30S 40°51' E 146°11'1224.0
2019-Jul-19 18:00S 40°41' E 146°04'5329.1
2019-Jul-19 18:00S 40°36' E 146°00'714.0 1017.2 12.1 13.0
2019-Jul-19 17:30S 40°30' E 145°56'1937.1
2019-Jul-19 17:00S 40°12' E 145°48'4824.0 1018.0 12.0 13.2
2019-Jul-19 15:00S 39°30' E 145°18'3131.4 1019.3 11.9 13.6
2019-Jul-19 14:00S 39°00' E 145°06'4623.0 1020.1 11.6 13.9
2019-Jul-19 12:00S 38°18' E 144°42'1111.2 1020.5 10.2 12.2
2019-Jul-19 11:00S 38°12' E 144°54'2412.0 1021.3 10.9 11.4
2019-Jul-19 09:00S 37°48' E 144°54'0 0.0 1021.2 11.9
2019-Jul-19 08:00S 37°48' E 144°54'0 0.0 1020.6 12.9
2019-Jul-19 05:00S 37°48' E 144°54'0 0.0 1020.2 11.6 10.9
2019-Jul-19 03:00S 37°48' E 144°54'0 0.0 1021.0 13.2 10.7
2019-Jul-19 02:00S 37°48' E 144°54'0 0.0 1021.6 12.4 10.7
2019-Jul-19 00:00S 37°48' E 144°54'0 0.0 1021.7 10.5 10.8
2019-Jul-18 23:00S 37°48' E 144°54'0 0.0 1020.7 9.0 10.8
2019-Jul-18 21:00S 37°48' E 144°54'0 0.0 1019.1 9.7 11.2
2019-Jul-18 20:00S 37°48' E 144°54'4314.3 1018.8 10.0
2019-Jul-18 17:00S 38°30' E 144°42'4824.0 1014.9 12.6 13.9
2019-Jul-18 15:00S 39°12' E 145°12'2625.7 1011.9 12.4 13.4
2019-Jul-18 14:00S 39°36' E 145°24'5326.6 1010.2 11.5 13.3
2019-Jul-18 12:00S 40°24' E 145°54'1216.7 1005.4 12.3 13.0
2019-Jul-18 11:15S 40°35' E 146°01'626.0
2019-Jul-18 11:00S 40°41' E 146°05'7483.5
2019-Jul-18 11:00S 40°48' E 146°06'713.9 1005.8 11.6 12.7
2019-Jul-18 10:30S 40°53' E 146°13'1825.4
2019-Jul-18 09:48S 41°09' E 146°23'3 4.1
2019-Jul-18 09:00S 41°12' E 146°24'0 0.0 1008.1 11.4 9.6
2019-Jul-18 08:00S 41°12' E 146°24'0 0.0 1008.7 11.4 10.0
2019-Jul-18 06:00S 41°12' E 146°24'0 0.0 1010.1 11.2 11.0
2019-Jul-18 05:00S 41°12' E 146°24'0 0.0 1010.3 10.9 11.9
2019-Jul-18 03:00S 41°12' E 146°24'0 0.0 1011.1 10.5 12.7
2019-Jul-18 02:00S 41°12' E 146°24'0 0.0 1011.9 10.1 12.6
2019-Jul-18 00:00S 41°12' E 146°24'0 0.0 1012.2 8.7 12.1
2019-Jul-17 21:00S 41°12' E 146°24'0 0.0 1010.5 7.9 9.6
2019-Jul-17 20:00S 41°12' E 146°24'4622.9 1009.8 8.3 11.6
2019-Jul-17 18:00S 40°30' E 146°00'432.0 1009.7 10.0
2019-Jul-17 17:52S 40°34' E 146°01'3135.9
2019-Jul-17 17:00S 40°06' E 145°42'5326.6 1010.1 11.1 13.2
2019-Jul-17 15:00S 39°18' E 145°12'2020.3 1010.8 11.8 13.5
2019-Jul-17 14:00S 39°00' E 145°00'4321.5 1011.2 12.8 14.1
2019-Jul-17 12:00S 38°18' E 144°48'1312.9 1014.6 11.2 12.1
2019-Jul-17 11:00S 38°06' E 144°54'18 9.0 1014.9 11.0 11.4
2019-Jul-17 09:00S 37°48' E 144°54'0 0.0 1014.2 11.9 10.9
2019-Jul-17 08:00S 37°48' E 144°54'0 0.0 1013.3 12.2 11.0
2019-Jul-17 06:00S 37°48' E 144°54'0 0.0 1012.9 13.2 11.2
2019-Jul-17 05:00S 37°48' E 144°54'0 0.0 1012.5 11.8 11.2
2019-Jul-17 03:00S 37°48' E 144°54'0 0.0 1014.2 12.2 11.1
2019-Jul-17 02:00S 37°48' E 144°54'0 0.0 1015.5 11.1 11.1
2019-Jul-16 23:00S 37°48' E 144°54'3015.2 1017.4 11.1 12.7
2019-Jul-16 21:00S 38°18' E 144°48'1515.2 1017.1 9.7 12.0
2019-Jul-16 20:00S 38°30' E 144°36'5326.7 1015.7 10.4 14.0
2019-Jul-16 18:00S 39°18' E 145°06'2827.7 1015.1 11.0 13.6
2019-Jul-16 17:00S 39°42' E 145°24'5326.6 1014.5 11.4 13.5
2019-Jul-16 15:00S 40°30' E 145°54'791.6 1013.7 10.2 13.0
2019-Jul-16 14:55S 40°23' E 145°52'1127.6
2019-Jul-16 14:31S 40°33' E 145°59'1427.5
2019-Jul-16 14:01S 40°45' E 146°07'10576.8
2019-Jul-16 14:00S 40°54' E 146°12'4 8.8 1012.3 11.1 13.0
2019-Jul-16 13:31S 40°57' E 146°16'1325.5
2019-Jul-16 13:00S 41°09' E 146°23'3 3.1
2019-Jul-16 12:00S 41°12' E 146°24'0 0.0 1013.6 10.6 12.7
2019-Jul-16 11:00S 41°12' E 146°24'8 3.8 1013.9 11.0 12.7
2019-Jul-16 09:00S 41°06' E 146°18'493.6 1013.9 12.1 12.7
2019-Jul-16 08:57S 41°09' E 146°23'2226.6
2019-Jul-16 08:08S 40°50' E 146°09'856.2
2019-Jul-16 08:00S 40°42' E 146°06'1 9.2 1015.0 11.6
2019-Jul-16 07:53S 40°43' E 146°06'6031.5
2019-Jul-16 06:00S 39°48' E 145°36'2827.7 1015.8 12.2 13.6
2019-Jul-16 05:00S 39°24' E 145°18'5326.7 1017.6 12.0 13.8
2019-Jul-16 03:00S 38°36' E 144°48'2020.3 1020.7 12.1 13.6
2019-Jul-16 02:00S 38°18' E 144°36'2813.9 1022.4 12.3 12.3
2019-Jul-16 00:00S 37°54' E 144°54'6 6.0 1023.6 10.8 11.7
2019-Jul-15 23:00S 37°48' E 144°54'0 0.0 1023.3 10.9 11.0
2019-Jul-15 21:00S 37°48' E 144°54'3010.0 1022.2 10.3 11.2
2019-Jul-15 18:00S 38°18' E 144°54'4916.3 1021.3 10.8 11.5
2019-Jul-15 15:00S 39°06' E 145°06'2827.7 1018.4 12.3 14.0
2019-Jul-15 14:00S 39°30' E 145°24'5326.6 1017.5 11.7 13.8
2019-Jul-15 12:00S 40°18' E 145°54'1217.1 1013.7 11.2 13.1
2019-Jul-15 11:16S 40°30' E 145°58'726.9
2019-Jul-15 11:00S 40°36' E 146°02'6409.3
2019-Jul-15 11:00S 40°42' E 146°06'714.7 1012.0 11.2 13.0
2019-Jul-15 10:30S 40°48' E 146°10'1427.3
2019-Jul-15 10:00S 41°01' E 146°18'1211.8
2019-Jul-15 09:00S 41°12' E 146°24'0 0.0 1010.9 11.8 12.1
2019-Jul-15 08:00S 41°12' E 146°24'0 0.0 1010.4 12.0 9.6
2019-Jul-15 06:00S 41°12' E 146°24'0 0.0 1010.4 12.5 9.2
2019-Jul-15 05:00S 41°12' E 146°24'0 0.0 1011.2 10.9 9.5
2019-Jul-15 03:00S 41°12' E 146°24'0 0.0 1013.2 10.5 10.7
2019-Jul-15 00:00S 41°12' E 146°24'410.3 1014.4 9.5 12.6
2019-Jul-14 23:38S 41°08' E 146°23'515.2
2019-Jul-14 23:20S 41°04' E 146°22'1236.9
2019-Jul-14 23:00S 40°54' E 146°12'6149.2 1014.8 9.5 12.8
2019-Jul-14 22:57S 40°58' E 146°17'1327.9
2019-Jul-14 22:28S 40°46' E 146°08'5034.0
2019-Jul-14 21:00S 40°00' E 145°42'2322.7 1011.8 10.6 13.4
2019-Jul-14 20:00S 39°42' E 145°24'5326.7 1012.4 10.9 13.8
2019-Jul-14 18:00S 38°54' E 144°54'2625.8 1011.8 11.8 14.0
2019-Jul-14 17:00S 38°30' E 144°42'3115.7 1016.2 11.9 13.3
2019-Jul-14 15:00S 38°00' E 144°54'1212.0 1015.6 10.3 11.6
2019-Jul-14 14:00S 37°48' E 144°54'0 0.0 1015.7 10.0 12.6
2019-Jul-14 12:00S 37°48' E 144°54'6 6.0 1015.7 11.0 12.7
2019-Jul-14 11:00S 37°54' E 144°54'2813.9 1015.1 10.7 12.3
2019-Jul-14 09:00S 38°18' E 144°36'2625.8 1014.2 10.3
2019-Jul-14 08:00S 38°42' E 144°48'4824.0 1007.3 11.9 14.1
2019-Jul-14 06:00S 39°24' E 145°18'2625.7 1006.8 11.8 13.8
2019-Jul-14 05:00S 39°48' E 145°30'5326.6 1005.0 9.5 13.5
2019-Jul-14 03:00S 40°36' E 146°00'2827.6 1002.5 9.2 12.9
2019-Jul-14 02:00S 41°00' E 146°18'13 6.4 1003.2 10.4 13.2
2019-Jul-14 00:00S 41°12' E 146°24'0 0.0 1004.4 10.1 13.0
2019-Jul-13 23:00S 41°12' E 146°24'2 2.7 1004.2 9.9 13.1
2019-Jul-13 22:14S 41°11' E 146°22'211.2
2019-Jul-13 22:00S 41°08' E 146°23'1325.5
2019-Jul-13 21:30S 40°57' E 146°15'1427.7
2019-Jul-13 21:00S 40°45' E 146°06'10615.1
2019-Jul-13 21:00S 40°36' E 146°00'2625.7 1007.3 11.1 12.8
2019-Jul-13 20:00S 40°12' E 145°48'5326.6 1009.1 10.7 13.3
2019-Jul-13 18:00S 39°24' E 145°18'2827.8 1013.7 10.8 13.7
2019-Jul-13 17:00S 39°00' E 145°00'4321.5 1016.2 11.3 13.9
2019-Jul-13 15:00S 38°18' E 144°48'1312.9 1020.6 7.7 11.5
2019-Jul-13 14:00S 38°06' E 144°54'18 9.0 1020.5 8.2 11.5
2019-Jul-13 12:00S 37°48' E 144°54'0 0.0 1022.9 7.3 11.3
2019-Jul-13 11:00S 37°48' E 144°54'6 3.0 1022.7 7.5 11.3
2019-Jul-13 09:00S 37°54' E 144°54'1818.0 1020.8 8.6 12.1
2019-Jul-13 08:00S 38°12' E 144°54'3015.2 1018.0 10.2 11.7
2019-Jul-13 06:00S 38°42' E 144°48'8127.0 1014.5 10.6 14.1
2019-Jul-13 03:00S 39°54' E 145°36'2625.7 1008.2 9.4 13.5
2019-Jul-13 02:00S 40°18' E 145°48'914.9 1006.3 9.5 13.2
2019-Jul-13 01:24S 40°25' E 145°55'1127.3
2019-Jul-13 01:00S 40°35' E 146°01'1427.5
2019-Jul-13 00:31S 40°47' E 146°09'2242.7
2019-Jul-13 00:00S 41°06' E 146°24'7391.0 1002.3 7.6 13.5
2019-Jul-12 23:58S 41°00' E 146°18'1313.0
2019-Jul-12 23:00S 41°12' E 146°24'0 0.0 1001.7 7.4 12.8
2019-Jul-12 21:00S 41°12' E 146°24'0 0.0 998.7 6.4 13.0
2019-Jul-12 20:00S 41°12' E 146°24'1812.3 998.1 5.6 14.0
2019-Jul-12 18:31S 40°55' E 146°14'127.0
2019-Jul-12 18:29S 40°54' E 146°14'1327.0
2019-Jul-12 18:00S 40°43' E 146°06'8653.6
2019-Jul-12 18:00S 40°36' E 146°00'2625.7 995.9 9.4 12.8
2019-Jul-12 17:00S 40°12' E 145°48'5326.6 997.5 7.1 13.3
2019-Jul-12 15:00S 39°24' E 145°18'2625.7 998.3 9.0 13.7
2019-Jul-12 14:00S 39°00' E 145°06'4623.0 1001.6 9.2 14.1
2019-Jul-12 12:00S 38°18' E 144°42'1111.2 1004.2 8.0 12.9
2019-Jul-12 11:00S 38°12' E 144°54'2412.0 1003.4 10.0 11.9
2019-Jul-12 09:00S 37°48' E 144°54'0 0.0 1005.9 9.9 11.6
2019-Jul-12 08:00S 37°48' E 144°54'0 0.0 1005.1 9.6 11.7
2019-Jul-12 06:00S 37°48' E 144°54'0 0.0 1003.7 13.9 13.4
2019-Jul-12 05:00S 37°48' E 144°54'0 0.0 1003.7 14.1 11.5
2019-Jul-12 03:00S 37°48' E 144°54'0 0.0 1004.1 14.2 11.5
2019-Jul-12 02:00S 37°48' E 144°54'0 0.0 1005.0 12.8 11.5
2019-Jul-11 23:00S 37°48' E 144°54'0 0.0 1004.3 11.7 11.5
2019-Jul-11 21:00S 37°48' E 144°54'6 6.0 1004.5 12.4 12.0
2019-Jul-11 20:00S 37°54' E 144°54'2412.2 1004.1 11.8 13.0
2019-Jul-11 18:00S 38°18' E 144°48'1312.9 1003.4 11.6 12.7
2019-Jul-11 17:00S 38°30' E 144°42'5326.7 1002.0 12.7 13.8
2019-Jul-11 15:00S 39°18' E 145°12'2020.2 999.3 13.3 13.7
2019-Jul-11 14:00S 39°36' E 145°24'5326.6 998.5 13.1 13.6
2019-Jul-11 12:00S 40°24' E 145°54'3 6.5 998.3 12.0 13.2
2019-Jul-11 11:31S 40°26' E 145°56'026.4
2019-Jul-11 11:30S 40°27' E 145°57'1326.0
2019-Jul-11 11:00S 40°39' E 146°04'92238.9
2019-Jul-11 11:00S 40°48' E 146°06'5 9.8 997.1 11.2 13.4
2019-Jul-11 10:30S 40°50' E 146°11'1325.3
2019-Jul-11 10:00S 41°02' E 146°19'1015.9
2019-Jul-11 09:24S 41°11' E 146°22'2 4.6
2019-Jul-11 09:00S 41°12' E 146°24'0 0.0 996.8 9.5 12.7
2019-Jul-11 08:00S 41°12' E 146°24'0 0.0 995.7 9.6 12.7
2019-Jul-11 06:00S 41°12' E 146°24'0 0.0 995.3 10.6 12.2
2019-Jul-11 05:00S 41°12' E 146°24'0 0.0 994.7 11.0 10.6
2019-Jul-11 03:00S 41°12' E 146°24'0 0.0 994.9 10.8 10.4
2019-Jul-11 02:00S 41°12' E 146°24'0 0.0 994.6 11.9 10.5
2019-Jul-11 00:00S 41°12' E 146°24'0 0.0 993.3 9.8 11.4
2019-Jul-10 23:00S 41°12' E 146°24'0 0.0 992.9 9.3 11.9
2019-Jul-10 21:00S 41°12' E 146°24'0 0.0 992.1 9.0 12.7
2019-Jul-10 20:00S 41°12' E 146°24'2 5.1 991.5 8.7 13.2
2019-Jul-10 19:31S 41°10' E 146°22'0 9.6
2019-Jul-10 19:31S 41°10' E 146°22'918.5
2019-Jul-10 19:00S 41°01' E 146°18'1523.4
2019-Jul-10 18:23S 40°48' E 146°09'1436.1
2019-Jul-10 18:00S 40°36' E 146°00'7926.3 991.5 10.5
2019-Jul-10 15:00S 39°24' E 145°18'7223.9 993.1 10.4 14.1
2019-Jul-10 12:00S 38°18' E 144°42'1111.2 998.3 10.4 13.4
2019-Jul-10 11:00S 38°12' E 144°54'2412.0 998.8 12.9 12.1
2019-Jul-10 09:00S 37°48' E 144°54'0 0.0 1002.0 13.8 11.7
2019-Jul-10 08:00S 37°48' E 144°54'0 0.0 1002.2 14.1 11.7
2019-Jul-10 06:00S 37°48' E 144°54'0 0.0 1003.7 14.8 11.7
2019-Jul-10 03:00S 37°48' E 144°54'0 0.0 1007.1 13.6 11.7
2019-Jul-10 02:00S 37°48' E 144°54'0 0.0 010 / 201009.0 13.1 11.7
2019-Jul-10 00:00S 37°48' E 144°54'0 0.0 190 / 161012.1 11.5 11.8
2019-Jul-09 23:00S 37°48' E 144°54'12 6.0 200 / 161012.1 10.5
2019-Jul-09 21:00S 38°00' E 144°54'1818.0 180 / 631012.8 10.8
2019-Jul-09 20:00S 38°18' E 144°54'   220 / 561011.3 11.6 12.4

Dump ship's entire track history